Time;durP1;ratioP1;P1;durP2;ratioP2;P2;SDS_P1;SDS_P2;PMS_P1;PMS_P2;Temp;Humidity;BMP_temperature;BMP_pressure;BME280_temperature;BME280_humidity;BME280_pressure;Samples;Min_cycle;Max_cycle;Signal;HPM_P1;HPM_P2
2023/10/19 00:00:45;;;;;;;;;;;9.10;99.90;;;;;;5134567;27;20262;-47
2023/10/19 00:03:11;;;;;;;;;;;9.00;99.90;;;;;;5134738;27;19959;-47
2023/10/19 00:05:37;;;;;;;;;;;9.00;99.90;;;;;;5134572;27;19918;-46
2023/10/19 00:08:22;;;;;;;;;;;9.00;99.90;;;;;;5134265;27;19914;-46
2023/10/19 00:10:55;;;;;;;;;;;9.00;99.90;;;;;;5134454;27;19908;-48
2023/10/19 00:13:22;;;;;;;;;;;9.00;99.90;;;;;;5134562;27;19908;-46
2023/10/19 00:15:51;;;;;;;;;;;9.00;99.90;;;;;;5134438;27;19960;-46
2023/10/19 00:20:54;;;;;;;;;;;9.00;99.90;;;;;;5134259;27;19914;-47
2023/10/19 00:23:31;;;;;;;;;;;9.00;99.90;;;;;;5134411;27;19907;-48
2023/10/19 00:26:08;;;;;;;;;;;9.00;99.90;;;;;;5134220;27;19919;-46
2023/10/19 00:28:35;;;;;;;;;;;9.00;99.90;;;;;;5134126;27;19915;-46
2023/10/19 00:31:04;;;;;;;;;;;8.90;99.90;;;;;;5134032;27;19914;-46
2023/10/19 00:33:30;;;;;;;;;;;8.90;99.90;;;;;;5134185;27;20381;-46
2023/10/19 00:36:07;;;;;;;;;;;9.00;99.90;;;;;;5133946;27;19908;-47
2023/10/19 00:41:05;;;;;;;;;;;8.90;99.90;;;;;;5130958;27;19919;-47
2023/10/19 00:44:10;;;;;;;;;;;9.00;99.90;;;;;;5117532;27;19919;-47
2023/10/19 00:46:23;;;;;;;;;;;9.00;99.90;;;;;;5121096;27;19927;-47
2023/10/19 00:48:58;;;;;;;;;;;8.90;99.90;;;;;;5113253;28;19958;-46
2023/10/19 00:51:40;;;;;;;;;;;8.90;99.90;;;;;;5130019;27;19911;-47
2023/10/19 00:54:13;;;;;;;;;;;8.90;99.90;;;;;;5131873;27;20061;-46
2023/10/19 00:56:45;;;;;;;;;;;8.90;99.90;;;;;;5115385;28;19912;-45
2023/10/19 00:59:14;;;;;;;;;;;8.90;99.90;;;;;;5122406;27;19912;-47
2023/10/19 01:01:44;;;;;;;;;;;9.00;99.90;;;;;;5112987;28;19908;-46
2023/10/19 01:04:20;;;;;;;;;;;8.90;99.90;;;;;;5129723;28;19912;-45
2023/10/19 01:07:00;;;;;;;;;;;8.90;99.90;;;;;;5133725;28;19908;-46
2023/10/19 01:09:34;;;;;;;;;;;8.90;99.90;;;;;;5133589;28;20010;-47
2023/10/19 01:12:05;;;;;;;;;;;8.90;99.90;;;;;;5133669;28;19990;-46
2023/10/19 01:14:32;;;;;;;;;;;8.90;99.90;;;;;;5133273;28;19951;-49
2023/10/19 01:16:58;;;;;;;;;;;8.90;99.90;;;;;;5133549;28;19907;-45
2023/10/19 01:19:23;;;;;;;;;;;8.90;99.90;;;;;;5133620;28;19994;-46
2023/10/19 01:21:51;;;;;;;;;;;8.90;99.90;;;;;;5133575;28;19950;-46
2023/10/19 01:24:32;;;;;;;;;;;8.90;99.90;;;;;;5133611;28;19911;-47
2023/10/19 01:26:59;;;;;;;;;;;8.90;99.90;;;;;;5133491;28;19950;-48
2023/10/19 01:29:28;;;;;;;;;;;8.90;99.90;;;;;;5133912;27;19922;-49
2023/10/19 01:32:04;;;;;;;;;;;8.80;99.90;;;;;;5137517;27;19908;-47
2023/10/19 01:34:30;;;;;;;;;;;8.80;99.90;;;;;;5137685;27;19976;-47
2023/10/19 01:36:56;;;;;;;;;;;8.80;99.90;;;;;;5137239;27;20369;-49
2023/10/19 01:39:21;;;;;;;;;;;8.80;99.90;;;;;;5137615;27;19907;-47
2023/10/19 01:41:50;;;;;;;;;;;8.80;99.90;;;;;;5137369;27;19956;-46
2023/10/19 01:44:15;;;;;;;;;;;8.80;99.90;;;;;;5137400;27;19908;-47
2023/10/19 01:46:43;;;;;;;;;;;8.80;99.90;;;;;;5137209;27;19914;-48
2023/10/19 01:49:09;;;;;;;;;;;8.80;99.90;;;;;;5137186;27;19923;-48
2023/10/19 01:51:43;;;;;;;;;;;8.80;99.90;;;;;;5137161;27;19907;-48
2023/10/19 01:54:09;;;;;;;;;;;8.80;99.90;;;;;;5137235;27;19911;-49
2023/10/19 01:56:38;;;;;;;;;;;8.80;99.90;;;;;;5136972;27;19988;-48
2023/10/19 01:59:04;;;;;;;;;;;8.80;99.90;;;;;;5136849;27;19919;-48
2023/10/19 02:01:31;;;;;;;;;;;8.80;99.90;;;;;;5136825;27;19915;-51
2023/10/19 02:03:58;;;;;;;;;;;8.80;99.90;;;;;;5136537;27;20065;-55
2023/10/19 02:06:28;;;;;;;;;;;8.80;99.90;;;;;;5117609;27;19918;-51
2023/10/19 02:08:56;;;;;;;;;;;8.80;99.90;;;;;;5127485;27;19916;-53
2023/10/19 02:11:23;;;;;;;;;;;8.80;99.90;;;;;;5116284;28;19908;-49
2023/10/19 02:13:49;;;;;;;;;;;8.80;99.90;;;;;;5128555;27;19907;-52
2023/10/19 02:16:22;;;;;;;;;;;8.80;99.90;;;;;;5136741;27;19960;-52
2023/10/19 02:18:48;;;;;;;;;;;8.80;99.90;;;;;;5136552;27;20366;-51
2023/10/19 02:21:14;;;;;;;;;;;8.80;99.90;;;;;;5136929;27;19907;-52
2023/10/19 02:23:43;;;;;;;;;;;8.80;99.90;;;;;;5136514;27;19908;-54
2023/10/19 02:26:08;;;;;;;;;;;8.80;99.90;;;;;;5122467;27;19908;-52
2023/10/19 02:28:40;;;;;;;;;;;8.80;99.90;;;;;;5115934;28;19912;-52
2023/10/19 02:31:15;;;;;;;;;;;8.80;99.90;;;;;;5115939;28;20316;-49
2023/10/19 02:33:45;;;;;;;;;;;8.80;99.90;;;;;;5115820;28;20381;-52
2023/10/19 02:36:12;;;;;;;;;;;8.90;99.90;;;;;;5115664;28;19908;-50
2023/10/19 02:38:39;;;;;;;;;;;8.90;99.90;;;;;;5115553;28;19943;-50
2023/10/19 02:41:06;;;;;;;;;;;8.90;99.90;;;;;;5113955;28;20305;-50
2023/10/19 02:43:35;;;;;;;;;;;8.90;99.90;;;;;;5115543;28;19951;-53
2023/10/19 02:46:02;;;;;;;;;;;8.90;99.90;;;;;;5115517;28;19908;-52
2023/10/19 02:48:27;;;;;;;;;;;8.90;99.90;;;;;;5115584;28;19911;-50
2023/10/19 02:50:53;;;;;;;;;;;8.90;99.90;;;;;;5115377;28;19918;-53
2023/10/19 02:53:19;;;;;;;;;;;8.90;99.90;;;;;;5115815;28;19908;-52
2023/10/19 02:55:44;;;;;;;;;;;8.90;99.90;;;;;;5115428;28;19911;-52
2023/10/19 02:58:11;;;;;;;;;;;8.90;99.90;;;;;;5097096;28;19908;-49
2023/10/19 03:00:37;;;;;;;;;;;8.90;99.90;;;;;;5115282;28;20269;-52
2023/10/19 03:03:05;;;;;;;;;;;8.90;99.90;;;;;;5132111;27;19933;-54
2023/10/19 03:05:30;;;;;;;;;;;8.90;99.90;;;;;;5135883;27;19911;-52
2023/10/19 03:07:56;;;;;;;;;;;8.90;99.90;;;;;;5135481;27;20277;-50
2023/10/19 03:10:33;;;;;;;;;;;8.90;99.90;;;;;;5135036;27;19916;-51
2023/10/19 03:12:59;;;;;;;;;;;8.90;99.90;;;;;;5115198;27;19912;-52
2023/10/19 03:15:25;;;;;;;;;;;8.90;99.90;;;;;;5124959;27;19956;-48
2023/10/19 03:17:50;;;;;;;;;;;8.90;99.90;;;;;;5135184;27;20282;-52
2023/10/19 03:20:18;;;;;;;;;;;8.90;99.90;;;;;;5117959;27;19935;-53
2023/10/19 03:22:46;;;;;;;;;;;8.90;99.90;;;;;;5114877;27;19923;-49
2023/10/19 03:27:56;;;;;;;;;;;8.90;99.90;;;;;;5118955;27;19963;-53
2023/10/19 03:30:25;;;;;;;;;;;8.90;99.90;;;;;;5118024;27;19920;-53
2023/10/19 03:32:50;;;;;;;;;;;8.90;99.90;;;;;;5134848;27;19946;-53
2023/10/19 03:35:16;;;;;;;;;;;9.00;99.90;;;;;;5135211;27;20269;-53
2023/10/19 03:37:42;;;;;;;;;;;9.00;99.90;;;;;;5119735;27;20006;-54
2023/10/19 03:40:09;;;;;;;;;;;8.90;99.90;;;;;;5126849;27;20423;-54
2023/10/19 03:42:40;;;;;;;;;;;8.90;99.90;;;;;;5114466;28;20384;-54
2023/10/19 03:45:12;;;;;;;;;;;9.00;99.90;;;;;;5123691;27;20085;-53
2023/10/19 03:47:38;;;;;;;;;;;9.00;99.90;;;;;;5134990;27;19921;-55
2023/10/19 03:50:07;;;;;;;;;;;9.00;99.90;;;;;;5134183;27;19923;-53
2023/10/19 03:52:38;;;;;;;;;;;9.00;99.90;;;;;;5134839;27;19915;-52
2023/10/19 03:55:11;;;;;;;;;;;9.00;99.90;;;;;;5134790;27;20351;-55
2023/10/19 03:57:41;;;;;;;;;;;9.00;99.90;;;;;;5134726;27;19915;-52
2023/10/19 04:00:10;;;;;;;;;;;9.00;99.90;;;;;;5134589;27;19914;-54
2023/10/19 04:02:38;;;;;;;;;;;9.00;99.90;;;;;;5134681;27;19908;-52
2023/10/19 04:05:04;;;;;;;;;;;9.00;99.90;;;;;;5126355;27;20366;-55
2023/10/19 04:07:31;;;;;;;;;;;9.00;99.90;;;;;;5126024;27;20374;-52
2023/10/19 04:09:58;;;;;;;;;;;9.00;99.90;;;;;;5119185;27;19926;-53
2023/10/19 04:12:24;;;;;;;;;;;9.00;99.90;;;;;;5125992;27;19959;-50
2023/10/19 04:14:50;;;;;;;;;;;9.00;99.90;;;;;;5122151;27;19915;-51
2023/10/19 04:17:17;;;;;;;;;;;9.00;99.90;;;;;;5116770;27;20358;-50
2023/10/19 04:19:43;;;;;;;;;;;9.00;99.90;;;;;;5113756;28;19961;-54
2023/10/19 04:22:11;;;;;;;;;;;9.00;99.90;;;;;;5118204;27;19915;-52
2023/10/19 04:24:36;;;;;;;;;;;9.00;99.90;;;;;;5129550;27;19908;-52
2023/10/19 04:27:02;;;;;;;;;;;9.00;99.90;;;;;;5134148;27;19960;-53
2023/10/19 04:29:27;;;;;;;;;;;9.00;99.90;;;;;;5134187;27;20018;-53
2023/10/19 04:31:56;;;;;;;;;;;9.00;99.90;;;;;;5134131;27;19908;-53
2023/10/19 04:34:22;;;;;;;;;;;9.00;99.90;;;;;;5119775;27;20393;-51
2023/10/19 04:36:48;;;;;;;;;;;9.10;99.90;;;;;;5113222;28;19961;-52
2023/10/19 04:39:13;;;;;;;;;;;9.10;99.90;;;;;;5113374;28;20007;-53
2023/10/19 04:41:39;;;;;;;;;;;9.10;99.90;;;;;;5113330;27;20409;-50
2023/10/19 04:44:08;;;;;;;;;;;9.10;99.90;;;;;;5114510;27;19925;-55
2023/10/19 04:46:34;;;;;;;;;;;9.10;99.90;;;;;;5124716;27;19991;-54
2023/10/19 04:48:59;;;;;;;;;;;9.10;99.90;;;;;;5113113;28;20381;-53
2023/10/19 04:51:25;;;;;;;;;;;9.10;99.90;;;;;;5128077;27;19911;-53
2023/10/19 04:53:50;;;;;;;;;;;9.10;99.90;;;;;;5133662;27;20002;-53
2023/10/19 04:56:16;;;;;;;;;;;9.10;99.90;;;;;;5133911;27;19914;-54
2023/10/19 04:58:41;;;;;;;;;;;9.10;99.90;;;;;;5133617;27;19908;-53
2023/10/19 05:01:07;;;;;;;;;;;9.10;99.90;;;;;;5133722;27;20430;-52
2023/10/19 05:03:32;;;;;;;;;;;9.10;99.90;;;;;;5119062;28;20003;-54
2023/10/19 05:05:58;;;;;;;;;;;9.10;99.90;;;;;;5112420;28;19911;-54
2023/10/19 05:08:25;;;;;;;;;;;9.20;99.90;;;;;;5113033;28;19908;-50
2023/10/19 05:10:58;;;;;;;;;;;9.10;99.90;;;;;;5120398;28;19912;-52
2023/10/19 05:13:25;;;;;;;;;;;9.10;99.90;;;;;;5122143;28;19911;-54
2023/10/19 05:15:52;;;;;;;;;;;9.10;99.90;;;;;;5122008;28;19966;-53
2023/10/19 05:18:18;;;;;;;;;;;9.10;99.90;;;;;;5133859;28;19957;-51
2023/10/19 05:20:45;;;;;;;;;;;9.10;99.90;;;;;;5133429;28;19953;-51
2023/10/19 05:23:13;;;;;;;;;;;9.10;99.90;;;;;;5133451;28;19908;-51
2023/10/19 05:25:38;;;;;;;;;;;9.20;99.90;;;;;;5133421;28;19907;-55
2023/10/19 05:28:05;;;;;;;;;;;9.20;99.90;;;;;;5133525;28;20250;-54
2023/10/19 05:30:31;;;;;;;;;;;9.20;99.90;;;;;;5133451;28;19955;-54
2023/10/19 05:32:57;;;;;;;;;;;9.20;99.90;;;;;;5133423;28;20477;-55
2023/10/19 05:35:26;;;;;;;;;;;9.20;99.90;;;;;;5133295;28;19945;-56
2023/10/19 05:37:52;;;;;;;;;;;9.10;99.90;;;;;;5132697;27;20001;-53
2023/10/19 05:40:18;;;;;;;;;;;9.20;99.90;;;;;;5133487;28;20345;-53
2023/10/19 05:42:45;;;;;;;;;;;9.20;99.90;;;;;;5128130;27;19908;-53
2023/10/19 05:45:13;;;;;;;;;;;9.20;99.90;;;;;;5128484;28;19912;-54
2023/10/19 05:47:38;;;;;;;;;;;9.20;99.90;;;;;;5121357;28;20003;-52
2023/10/19 05:50:04;;;;;;;;;;;9.20;99.90;;;;;;5112901;28;19998;-55
2023/10/19 05:52:30;;;;;;;;;;;9.20;99.90;;;;;;5121247;28;19922;-54
2023/10/19 05:54:57;;;;;;;;;;;9.20;99.90;;;;;;5118967;28;19958;-54
2023/10/19 05:57:23;;;;;;;;;;;9.20;99.90;;;;;;5117581;28;19918;-53
2023/10/19 05:59:49;;;;;;;;;;;9.20;99.90;;;;;;5119869;28;19916;-53
2023/10/19 06:02:15;;;;;;;;;;;9.20;99.90;;;;;;5133373;28;19908;-52
2023/10/19 06:04:40;;;;;;;;;;;9.20;99.90;;;;;;5133073;28;20411;-53
2023/10/19 06:07:06;;;;;;;;;;;9.20;99.90;;;;;;5120824;28;19911;-53
2023/10/19 06:09:31;;;;;;;;;;;9.20;99.90;;;;;;5114160;28;20370;-54
2023/10/19 06:11:57;;;;;;;;;;;9.20;99.90;;;;;;5112324;28;19911;-54
2023/10/19 06:14:22;;;;;;;;;;;9.20;99.90;;;;;;5114524;28;19919;-53
2023/10/19 06:16:48;;;;;;;;;;;9.20;99.90;;;;;;5113966;28;19926;-52
2023/10/19 06:19:13;;;;;;;;;;;9.20;99.90;;;;;;5117695;27;19907;-52
2023/10/19 06:21:39;;;;;;;;;;;9.20;99.90;;;;;;5123708;27;19908;-54
2023/10/19 06:24:05;;;;;;;;;;;9.20;99.90;;;;;;5115924;28;20275;-53
2023/10/19 06:26:31;;;;;;;;;;;9.20;99.90;;;;;;5120499;27;19919;-51
2023/10/19 06:28:59;;;;;;;;;;;9.20;99.90;;;;;;5115814;28;19988;-51
2023/10/19 06:31:25;;;;;;;;;;;9.20;99.90;;;;;;5115523;28;19907;-52
2023/10/19 06:33:51;;;;;;;;;;;9.20;99.90;;;;;;5118085;27;20287;-53
2023/10/19 06:36:17;;;;;;;;;;;9.20;99.90;;;;;;5123087;27;20419;-53
2023/10/19 06:38:44;;;;;;;;;;;9.30;99.90;;;;;;5122082;27;19919;-53
2023/10/19 06:41:10;;;;;;;;;;;9.30;99.90;;;;;;5122712;27;19955;-53
2023/10/19 06:43:36;;;;;;;;;;;9.30;99.90;;;;;;5136281;27;19907;-51
2023/10/19 06:46:01;;;;;;;;;;;9.30;99.90;;;;;;5128065;27;19914;-53
2023/10/19 06:48:27;;;;;;;;;;;9.30;99.90;;;;;;5115564;28;19907;-52
2023/10/19 06:50:52;;;;;;;;;;;9.30;99.90;;;;;;5115544;28;20015;-51
2023/10/19 06:53:18;;;;;;;;;;;9.40;99.90;;;;;;5110272;28;19915;-53
2023/10/19 06:55:43;;;;;;;;;;;9.30;99.90;;;;;;5115305;28;19936;-53
2023/10/19 06:58:09;;;;;;;;;;;9.30;99.90;;;;;;5122703;27;20362;-53
2023/10/19 07:00:36;;;;;;;;;;;9.40;99.90;;;;;;5135879;27;19942;-51
2023/10/19 07:03:03;;;;;;;;;;;9.40;99.90;;;;;;5133596;27;20009;-53
2023/10/19 07:05:31;;;;;;;;;;;9.40;99.90;;;;;;5124315;27;19959;-51
2023/10/19 07:07:59;;;;;;;;;;;9.40;99.90;;;;;;5120721;27;20362;-50
2023/10/19 07:10:25;;;;;;;;;;;9.40;99.90;;;;;;5118435;27;19920;-52
2023/10/19 07:12:53;;;;;;;;;;;9.40;99.90;;;;;;5115607;27;19912;-51
2023/10/19 07:15:19;;;;;;;;;;;9.40;99.90;;;;;;5135331;27;19908;-52
2023/10/19 07:17:46;;;;;;;;;;;9.40;99.90;;;;;;5129659;27;20274;-49
2023/10/19 07:20:25;;;;;;;;;;;9.40;99.90;;;;;;5115080;28;20041;-50
2023/10/19 07:23:18;;;;;;;;;;;9.40;99.90;;;;;;5114873;27;20429;-52
2023/10/19 07:25:59;;;;;;;;;;;9.50;99.90;;;;;;5135281;27;19919;-52
2023/10/19 07:28:26;;;;;;;;;;;9.50;99.90;;;;;;5131513;27;19908;-51
2023/10/19 07:30:52;;;;;;;;;;;9.50;99.90;;;;;;5116970;27;19991;-53
2023/10/19 07:33:17;;;;;;;;;;;9.50;99.90;;;;;;5122255;27;19912;-53
2023/10/19 07:35:45;;;;;;;;;;;9.50;99.90;;;;;;5114281;28;20366;-51
2023/10/19 07:38:13;;;;;;;;;;;9.50;99.90;;;;;;5114001;28;19920;-52
2023/10/19 07:40:38;;;;;;;;;;;9.60;99.90;;;;;;5114424;28;20015;-48
2023/10/19 07:43:04;;;;;;;;;;;9.60;99.90;;;;;;5115403;27;19951;-52
2023/10/19 07:45:31;;;;;;;;;;;9.60;99.90;;;;;;5125925;27;19916;-50
2023/10/19 07:47:57;;;;;;;;;;;9.60;99.90;;;;;;5123652;27;19907;-52
2023/10/19 07:50:22;;;;;;;;;;;9.60;99.90;;;;;;5126813;27;19990;-49
2023/10/19 07:52:49;;;;;;;;;;;9.60;99.90;;;;;;5134773;27;19912;-52
2023/10/19 07:55:15;;;;;;;;;;;9.60;99.90;;;;;;5127178;27;19919;-49
2023/10/19 07:57:41;;;;;;;;;;;9.60;99.90;;;;;;5134594;27;19907;-49
2023/10/19 08:00:08;;;;;;;;;;;9.60;99.90;;;;;;5134058;27;19946;-49
2023/10/19 08:02:37;;;;;;;;;;;9.70;99.90;;;;;;5123507;27;19911;-53
2023/10/19 08:05:04;;;;;;;;;;;9.60;99.90;;;;;;5114251;28;19909;-52
2023/10/19 08:07:30;;;;;;;;;;;9.70;99.90;;;;;;5114024;28;20029;-53
2023/10/19 08:09:58;;;;;;;;;;;9.70;99.90;;;;;;5113864;28;19923;-53
2023/10/19 08:12:26;;;;;;;;;;;9.70;99.90;;;;;;5113845;28;20437;-52
2023/10/19 08:14:52;;;;;;;;;;;9.70;99.90;;;;;;5113669;28;19922;-51
2023/10/19 08:17:17;;;;;;;;;;;9.70;99.90;;;;;;5113879;28;20309;-51
2023/10/19 08:19:43;;;;;;;;;;;9.80;99.90;;;;;;5113727;28;20543;-50
2023/10/19 08:22:09;;;;;;;;;;;9.70;99.90;;;;;;5121230;27;19919;-51
2023/10/19 08:24:35;;;;;;;;;;;9.80;99.90;;;;;;5121774;27;20018;-48
2023/10/19 08:27:06;;;;;;;;;;;9.80;99.90;;;;;;5123849;27;20015;-52
2023/10/19 08:29:32;;;;;;;;;;;9.80;99.90;;;;;;5124680;27;19931;-53
2023/10/19 08:31:57;;;;;;;;;;;9.80;99.90;;;;;;5125276;27;19919;-51
2023/10/19 08:34:25;;;;;;;;;;;9.80;99.90;;;;;;5118509;27;19907;-51
2023/10/19 08:36:51;;;;;;;;;;;9.80;99.90;;;;;;5122989;27;20745;-52
2023/10/19 08:39:17;;;;;;;;;;;9.90;99.90;;;;;;5121397;27;19916;-53
2023/10/19 08:41:43;;;;;;;;;;;9.90;99.90;;;;;;5124501;27;19907;-52
2023/10/19 08:44:12;;;;;;;;;;;9.90;99.90;;;;;;5123654;27;19912;-55
2023/10/19 08:46:43;;;;;;;;;;;10.00;99.90;;;;;;5132748;27;19915;-53
2023/10/19 08:49:10;;;;;;;;;;;10.00;99.90;;;;;;5131477;27;19923;-52
2023/10/19 08:51:37;;;;;;;;;;;10.00;99.90;;;;;;5122128;27;19911;-53
2023/10/19 08:54:05;;;;;;;;;;;10.00;99.90;;;;;;5131691;27;19933;-53
2023/10/19 08:56:30;;;;;;;;;;;10.10;99.90;;;;;;5133344;27;19923;-53
2023/10/19 08:58:56;;;;;;;;;;;10.10;99.90;;;;;;5132863;27;19908;-48
2023/10/19 09:01:23;;;;;;;;;;;10.10;99.90;;;;;;5133707;27;19918;-51
2023/10/19 09:03:50;;;;;;;;;;;10.10;99.90;;;;;;5133211;28;19911;-50
2023/10/19 09:06:15;;;;;;;;;;;10.10;99.90;;;;;;5133598;28;20006;-52
2023/10/19 09:08:41;;;;;;;;;;;10.20;99.90;;;;;;5131943;28;20006;-50
2023/10/19 09:11:13;;;;;;;;;;;10.20;99.90;;;;;;5133639;28;19912;-51
2023/10/19 09:13:46;;;;;;;;;;;10.20;99.90;;;;;;5133550;28;19907;-54
2023/10/19 09:16:15;;;;;;;;;;;10.20;99.90;;;;;;5132682;28;19911;-49
2023/10/19 09:18:41;;;;;;;;;;;10.20;99.90;;;;;;5118926;28;19908;-49
2023/10/19 09:21:07;;;;;;;;;;;10.20;99.90;;;;;;5123433;28;19911;-51
2023/10/19 09:23:33;;;;;;;;;;;10.20;99.90;;;;;;5125469;28;19908;-53
2023/10/19 09:26:06;;;;;;;;;;;10.20;99.90;;;;;;5122185;28;19982;-53
2023/10/19 09:28:36;;;;;;;;;;;10.20;99.90;;;;;;5121957;28;20017;-54
2023/10/19 09:31:03;;;;;;;;;;;10.30;99.90;;;;;;5122389;28;19990;-51
2023/10/19 09:33:29;;;;;;;;;;;10.30;99.90;;;;;;5133009;28;19916;-54
2023/10/19 09:35:59;;;;;;;;;;;10.20;99.90;;;;;;5132800;28;20376;-50
2023/10/19 09:38:25;;;;;;;;;;;10.30;99.90;;;;;;5131913;27;19920;-50
2023/10/19 09:40:54;;;;;;;;;;;10.30;99.90;;;;;;5132709;28;20384;-51
2023/10/19 09:43:24;;;;;;;;;;;10.30;99.90;;;;;;5130673;28;20301;-52
2023/10/19 09:45:53;;;;;;;;;;;10.30;99.90;;;;;;5122258;28;19912;-51
2023/10/19 09:48:19;;;;;;;;;;;10.30;99.90;;;;;;5129014;28;20003;-52
2023/10/19 09:50:55;;;;;;;;;;;10.40;99.90;;;;;;5118294;27;20288;-51
2023/10/19 09:53:28;;;;;;;;;;;10.40;99.90;;;;;;5129060;27;20418;-52
2023/10/19 09:55:58;;;;;;;;;;;10.40;99.90;;;;;;5123213;27;19911;-51
2023/10/19 09:58:38;;;;;;;;;;;10.40;99.90;;;;;;5135845;27;20045;-51
2023/10/19 10:01:11;;;;;;;;;;;10.50;99.90;;;;;;5136225;27;20345;-51
2023/10/19 10:03:44;;;;;;;;;;;10.50;99.90;;;;;;5136861;27;20350;-49
2023/10/19 10:06:14;;;;;;;;;;;10.50;99.90;;;;;;5136510;27;19915;-53
2023/10/19 10:08:43;;;;;;;;;;;10.50;99.90;;;;;;5136273;27;20010;-53
2023/10/19 10:11:17;;;;;;;;;;;10.50;99.90;;;;;;5127904;27;20404;-51
2023/10/19 10:13:45;;;;;;;;;;;10.50;99.90;;;;;;5131351;27;20322;-52
2023/10/19 10:16:13;;;;;;;;;;;10.60;99.90;;;;;;5133556;27;20075;-52
2023/10/19 10:18:40;;;;;;;;;;;10.60;99.90;;;;;;5133961;27;19962;-51
2023/10/19 10:21:08;;;;;;;;;;;10.70;99.90;;;;;;5135846;27;19923;-51
2023/10/19 10:23:39;;;;;;;;;;;10.80;99.90;;;;;;5136155;27;20355;-50
2023/10/19 10:26:06;;;;;;;;;;;10.80;99.90;;;;;;5125554;27;19912;-53
2023/10/19 10:28:31;;;;;;;;;;;10.90;99.90;;;;;;5121816;27;19934;-49
2023/10/19 10:31:13;;;;;;;;;;;11.00;99.90;;;;;;5124503;27;20362;-51
2023/10/19 10:33:38;;;;;;;;;;;11.00;99.90;;;;;;5130607;27;19916;-52
2023/10/19 10:36:08;;;;;;;;;;;11.00;99.90;;;;;;5129402;27;19912;-53
2023/10/19 10:38:37;;;;;;;;;;;11.00;99.90;;;;;;5133908;27;19930;-49
2023/10/19 10:41:03;;;;;;;;;;;11.10;99.90;;;;;;5124401;27;20290;-52
2023/10/19 10:43:28;;;;;;;;;;;11.10;99.90;;;;;;5130918;27;19920;-50
2023/10/19 10:46:12;;;;;;;;;;;11.10;99.90;;;;;;5123080;27;19911;-53
2023/10/19 10:48:41;;;;;;;;;;;11.10;99.90;;;;;;5114856;28;19919;-48
2023/10/19 10:51:22;;;;;;;;;;;11.20;99.90;;;;;;5122528;27;19916;-54
2023/10/19 10:53:49;;;;;;;;;;;11.20;99.90;;;;;;5128762;27;20365;-53
2023/10/19 10:56:15;;;;;;;;;;;11.20;99.90;;;;;;5127691;27;19912;-48
2023/10/19 10:58:41;;;;;;;;;;;11.20;99.90;;;;;;5129295;27;20487;-53
2023/10/19 11:01:06;;;;;;;;;;;11.20;99.90;;;;;;5132038;27;19919;-51
2023/10/19 11:03:32;;;;;;;;;;;11.20;99.90;;;;;;5125106;27;19918;-53
2023/10/19 11:06:04;;;;;;;;;;;11.20;99.90;;;;;;5118467;27;19937;-49
2023/10/19 11:08:32;;;;;;;;;;;11.20;99.90;;;;;;5120968;27;19912;-52
2023/10/19 11:11:02;;;;;;;;;;;11.20;99.90;;;;;;5117145;27;19926;-51
2023/10/19 11:13:29;;;;;;;;;;;11.20;99.90;;;;;;5120130;27;19912;-53
2023/10/19 11:15:58;;;;;;;;;;;11.20;99.90;;;;;;5121929;27;20139;-50
2023/10/19 11:18:29;;;;;;;;;;;11.20;99.90;;;;;;5128571;27;19912;-53
2023/10/19 11:20:56;;;;;;;;;;;11.20;99.90;;;;;;5114638;28;19930;-51
2023/10/19 11:23:35;;;;;;;;;;;11.20;99.90;;;;;;5115140;28;20006;-50
2023/10/19 11:26:02;;;;;;;;;;;11.20;99.90;;;;;;5129719;27;19912;-53
2023/10/19 11:28:28;;;;;;;;;;;11.20;99.90;;;;;;5115867;27;19946;-49
2023/10/19 11:30:54;;;;;;;;;;;11.20;99.90;;;;;;5116728;27;19916;-52
2023/10/19 11:33:24;;;;;;;;;;;11.20;99.90;;;;;;5114352;28;20007;-48
2023/10/19 11:35:49;;;;;;;;;;;11.20;99.90;;;;;;5114583;27;19919;-50
2023/10/19 11:38:16;;;;;;;;;;;11.30;99.90;;;;;;5122663;27;19919;-53
2023/10/19 11:40:41;;;;;;;;;;;11.30;99.90;;;;;;5114170;28;19947;-48
2023/10/19 11:43:07;;;;;;;;;;;11.40;99.90;;;;;;5127802;27;20337;-53
2023/10/19 11:45:35;;;;;;;;;;;11.40;99.90;;;;;;5118639;27;19912;-54
2023/10/19 11:48:01;;;;;;;;;;;11.50;99.90;;;;;;5123551;27;19916;-47
2023/10/19 11:50:27;;;;;;;;;;;11.60;99.90;;;;;;5121731;27;20430;-50
2023/10/19 11:52:52;;;;;;;;;;;11.60;99.90;;;;;;5126409;27;20002;-49
2023/10/19 11:55:18;;;;;;;;;;;11.60;99.90;;;;;;5117999;27;19919;-52
2023/10/19 11:57:43;;;;;;;;;;;11.70;99.90;;;;;;5123410;27;19915;-52
2023/10/19 12:00:13;;;;;;;;;;;11.70;99.90;;;;;;5129577;27;19912;-51
2023/10/19 12:02:40;;;;;;;;;;;11.70;99.90;;;;;;5120971;27;19912;-51
2023/10/19 12:05:09;;;;;;;;;;;11.80;99.90;;;;;;5130116;27;19933;-50
2023/10/19 12:07:38;;;;;;;;;;;11.80;99.90;;;;;;5113548;28;19907;-52
2023/10/19 12:10:04;;;;;;;;;;;11.80;99.90;;;;;;5116123;27;19927;-51
2023/10/19 12:12:31;;;;;;;;;;;11.80;99.90;;;;;;5124690;27;20413;-49
2023/10/19 12:14:58;;;;;;;;;;;11.80;99.90;;;;;;5117314;27;19919;-51
2023/10/19 12:17:26;;;;;;;;;;;11.80;99.90;;;;;;5134692;27;19960;-51
2023/10/19 12:19:52;;;;;;;;;;;11.80;99.90;;;;;;5134021;27;19994;-51
2023/10/19 12:22:17;;;;;;;;;;;11.80;99.90;;;;;;5134561;27;19961;-52
2023/10/19 12:24:44;;;;;;;;;;;11.80;99.90;;;;;;5116932;27;19915;-50
2023/10/19 12:27:10;;;;;;;;;;;11.80;99.90;;;;;;5129207;27;20342;-51
2023/10/19 12:29:36;;;;;;;;;;;11.80;99.90;;;;;;5132859;27;19941;-50
2023/10/19 12:32:02;;;;;;;;;;;11.80;99.90;;;;;;5133620;27;20277;-54
2023/10/19 12:34:31;;;;;;;;;;;11.80;99.90;;;;;;5134131;27;19907;-49
2023/10/19 12:36:58;;;;;;;;;;;11.80;99.90;;;;;;5134070;27;20426;-51
2023/10/19 12:39:42;;;;;;;;;;;11.90;99.90;;;;;;5134630;27;19915;-50
2023/10/19 12:42:09;;;;;;;;;;;11.90;99.90;;;;;;5113861;28;19912;-51
2023/10/19 12:44:39;;;;;;;;;;;12.00;99.90;;;;;;5113503;28;19911;-51
2023/10/19 12:47:13;;;;;;;;;;;12.00;99.90;;;;;;5132751;27;19943;-49
2023/10/19 12:49:39;;;;;;;;;;;11.90;99.90;;;;;;5134216;27;19920;-50
2023/10/19 12:52:06;;;;;;;;;;;11.90;99.90;;;;;;5133893;27;19912;-51
2023/10/19 12:54:34;;;;;;;;;;;11.90;99.90;;;;;;5134292;27;19907;-52
2023/10/19 12:57:00;;;;;;;;;;;12.00;99.90;;;;;;5133672;27;19954;-52
2023/10/19 12:59:25;;;;;;;;;;;11.90;99.90;;;;;;5115295;27;20250;-52
2023/10/19 13:01:54;;;;;;;;;;;12.00;99.90;;;;;;5130949;27;20052;-50
2023/10/19 13:04:20;;;;;;;;;;;12.00;99.90;;;;;;5134061;27;19946;-50
2023/10/19 13:06:48;;;;;;;;;;;12.00;99.90;;;;;;5134016;28;19955;-51
2023/10/19 13:09:15;;;;;;;;;;;12.00;99.90;;;;;;5133871;28;20331;-52
2023/10/19 13:11:43;;;;;;;;;;;12.00;99.90;;;;;;5133654;28;19933;-50
2023/10/19 13:14:09;;;;;;;;;;;12.00;99.90;;;;;;5134149;28;19950;-50
2023/10/19 13:16:35;;;;;;;;;;;12.00;99.90;;;;;;5121208;28;20350;-51
2023/10/19 13:19:08;;;;;;;;;;;12.00;99.90;;;;;;5113367;28;19966;-52
2023/10/19 13:21:34;;;;;;;;;;;11.90;99.90;;;;;;5127795;28;19912;-51
2023/10/19 13:24:01;;;;;;;;;;;11.90;99.90;;;;;;5127613;28;19920;-50
2023/10/19 13:26:27;;;;;;;;;;;11.90;99.90;;;;;;5127525;27;19911;-52
2023/10/19 13:28:55;;;;;;;;;;;11.90;99.90;;;;;;5136818;27;19919;-51
2023/10/19 13:31:22;;;;;;;;;;;11.80;99.90;;;;;;5136980;27;20249;-53
2023/10/19 13:33:47;;;;;;;;;;;11.80;99.90;;;;;;5137916;27;19907;-51
2023/10/19 13:36:13;;;;;;;;;;;11.80;99.90;;;;;;5137749;27;20398;-49
2023/10/19 13:38:38;;;;;;;;;;;11.80;99.90;;;;;;5137115;27;20373;-50
2023/10/19 13:41:11;;;;;;;;;;;11.80;99.90;;;;;;5137375;27;19912;-51
2023/10/19 13:43:37;;;;;;;;;;;11.80;99.90;;;;;;5137943;27;19908;-49
2023/10/19 13:46:04;;;;;;;;;;;11.80;99.90;;;;;;5136482;27;19912;-51
2023/10/19 13:48:30;;;;;;;;;;;11.80;99.90;;;;;;5137608;27;19907;-52
2023/10/19 13:51:00;;;;;;;;;;;11.70;99.90;;;;;;5136894;27;20551;-50
2023/10/19 13:53:26;;;;;;;;;;;11.80;99.90;;;;;;5137734;27;20011;-51
2023/10/19 13:55:51;;;;;;;;;;;11.80;99.90;;;;;;5136962;27;20378;-48
2023/10/19 13:58:17;;;;;;;;;;;11.70;99.90;;;;;;5137054;27;19931;-48
2023/10/19 14:00:43;;;;;;;;;;;11.70;99.90;;;;;;5136680;27;19956;-49
2023/10/19 14:03:10;;;;;;;;;;;11.70;99.90;;;;;;5137091;27;19914;-49
2023/10/19 14:05:36;;;;;;;;;;;11.70;99.90;;;;;;5135448;27;19919;-48
2023/10/19 14:08:05;;;;;;;;;;;11.60;99.90;;;;;;5136709;27;19976;-49
2023/10/19 14:10:31;;;;;;;;;;;11.60;99.90;;;;;;5135626;27;19958;-51
2023/10/19 14:12:57;;;;;;;;;;;11.60;99.90;;;;;;5137003;27;19958;-50
2023/10/19 14:15:22;;;;;;;;;;;11.60;99.90;;;;;;5121431;27;19995;-50
2023/10/19 14:17:48;;;;;;;;;;;11.60;99.90;;;;;;5136941;27;19916;-53
2023/10/19 14:20:15;;;;;;;;;;;11.60;99.90;;;;;;5135780;27;19908;-49
2023/10/19 14:22:41;;;;;;;;;;;11.60;99.90;;;;;;5136443;27;19964;-49
2023/10/19 14:25:12;;;;;;;;;;;11.60;99.90;;;;;;5136849;27;19914;-52
2023/10/19 14:27:44;;;;;;;;;;;11.60;99.90;;;;;;5136274;27;20056;-50
2023/10/19 14:30:13;;;;;;;;;;;11.60;99.90;;;;;;5136480;27;19927;-51
2023/10/19 14:32:42;;;;;;;;;;;11.60;99.90;;;;;;5136441;27;19918;-50
2023/10/19 14:35:10;;;;;;;;;;;11.50;99.90;;;;;;5135672;27;19911;-51